Time;durP1;ratioP1;P1;durP2;ratioP2;P2;SDS_P1;SDS_P2;PMS_P1;PMS_P2;Temp;Humidity;BMP_temperature;BMP_pressure;BME280_temperature;BME280_humidity;BME280_pressure;Samples;Min_cycle;Max_cycle;Signal;HPM_P1;HPM_P2
2021/08/06 00:02:42;;;;;;;8.45;1.83;;;24.00;52.80;;;;;;6247444;28;20037;-74
2021/08/06 00:05:43;;;;;;;1.77;1.30;;;24.00;53.10;;;;;;6245408;28;20475;-74
2021/08/06 00:08:44;;;;;;;8.05;1.50;;;24.00;53.10;;;;;;6229578;28;20045;-74
2021/08/06 00:11:45;;;;;;;2.03;1.10;;;24.00;53.10;;;;;;6244638;28;20104;-74
2021/08/06 00:14:47;;;;;;;2.42;1.02;;;24.00;53.10;;;;;;6228819;28;20434;-74
2021/08/06 00:17:47;;;;;;;3.75;1.33;;;23.90;53.00;;;;;;6211700;28;20033;-74
2021/08/06 00:20:49;;;;;;;1.95;1.13;;;23.90;53.10;;;;;;6227788;28;20045;-74
2021/08/06 00:23:50;;;;;;;2.40;1.20;;;23.90;53.10;;;;;;6244290;28;20390;-74
2021/08/06 00:26:51;;;;;;;1.50;1.00;;;23.90;53.10;;;;;;6227534;28;20034;-74
2021/08/06 00:29:52;;;;;;;3.35;1.25;;;23.90;53.20;;;;;;6228157;28;20034;-74
2021/08/06 00:32:53;;;;;;;4.15;1.08;;;23.90;53.10;;;;;;6229900;28;20152;-74
2021/08/06 00:36:00;;;;;;;1.10;0.90;;;23.90;53.10;;;;;;6242292;28;20105;-74
2021/08/06 00:39:03;;;;;;;2.63;1.70;;;23.90;53.20;;;;;;6243642;28;20026;-74
2021/08/06 00:42:10;;;;;;;1.25;0.85;;;23.90;53.20;;;;;;6227264;28;20121;-74
2021/08/06 00:45:12;;;;;;;2.35;1.40;;;23.90;53.30;;;;;;6243680;28;20355;-73
2021/08/06 00:48:17;;;;;;;2.65;1.08;;;23.90;53.50;;;;;;6242719;28;20153;-74
2021/08/06 00:51:19;;;;;;;9.85;1.30;;;23.90;53.50;;;;;;6243688;28;20068;-74
2021/08/06 00:54:27;;;;;;;3.75;1.17;;;23.90;53.50;;;;;;6242813;28;20030;-74
2021/08/06 00:57:41;;;;;;;1.85;1.13;;;23.90;53.70;;;;;;6241344;28;20034;-74
2021/08/06 01:00:51;;;;;;;6.93;1.65;;;23.80;53.70;;;;;;6241951;28;20486;-74
2021/08/06 01:04:07;;;;;;;1.75;1.10;;;23.80;53.70;;;;;;6244346;28;20034;-74
2021/08/06 01:07:23;;;;;;;2.17;1.48;;;23.80;53.80;;;;;;6232650;28;20026;-74
2021/08/06 01:10:33;;;;;;;2.95;1.20;;;23.80;53.80;;;;;;6241378;28;20367;-74
2021/08/06 01:13:47;;;;;;;3.08;1.10;;;23.80;53.80;;;;;;6242155;28;20033;-74
2021/08/06 01:16:50;;;;;;;5.00;1.30;;;23.80;53.80;;;;;;6242022;28;20034;-74
2021/08/06 01:20:13;;;;;;;3.65;1.73;;;23.80;53.70;;;;;;6225228;28;20471;-74
2021/08/06 01:23:32;;;;;;;2.00;1.17;;;23.80;53.90;;;;;;6224261;28;20475;-74
2021/08/06 01:26:34;;;;;;;2.90;1.10;;;23.70;54.00;;;;;;6241183;28;20489;-74
2021/08/06 01:29:36;;;;;;;2.83;1.33;;;23.80;54.00;;;;;;6241196;28;20136;-74
2021/08/06 01:32:41;;;;;;;1.25;1.10;;;23.80;54.00;;;;;;6242405;28;20042;-74
2021/08/06 01:35:44;;;;;;;4.78;1.08;;;23.80;54.00;;;;;;6241373;28;20042;-74
2021/08/06 01:38:47;;;;;;;1.83;1.60;;;23.80;53.90;;;;;;6240917;28;20113;-75
2021/08/06 01:42:07;;;;;;;2.45;1.75;;;23.80;53.80;;;;;;6240822;28;20030;-74
2021/08/06 01:45:18;;;;;;;2.15;1.50;;;23.70;53.80;;;;;;6241021;28;20038;-74
2021/08/06 01:48:24;;;;;;;2.40;1.35;;;23.70;53.70;;;;;;6241456;28;20045;-74
2021/08/06 01:51:29;;;;;;;2.30;1.50;;;23.70;53.60;;;;;;6240930;28;20034;-74
2021/08/06 01:54:33;;;;;;;3.67;1.70;;;23.80;53.80;;;;;;6241286;28;20038;-74
2021/08/06 01:57:36;;;;;;;4.25;1.13;;;23.80;54.20;;;;;;6242126;28;20368;-74
2021/08/06 02:00:41;;;;;;;2.53;1.33;;;23.80;54.40;;;;;;6241764;28;20042;-74
2021/08/06 02:03:44;;;;;;;2.63;1.65;;;23.70;54.50;;;;;;6243066;28;20048;-74
2021/08/06 02:06:55;;;;;;;1.58;1.30;;;23.70;54.60;;;;;;6226206;28;20052;-74
2021/08/06 02:10:02;;;;;;;3.22;1.25;;;23.80;54.80;;;;;;6225241;28;20463;-74
2021/08/06 02:13:08;;;;;;;11.98;1.25;;;23.70;54.90;;;;;;6241826;28;20121;-74
2021/08/06 02:16:10;;;;;;;2.05;1.40;;;23.70;55.10;;;;;;6225131;28;20140;-74
2021/08/06 02:19:14;;;;;;;3.75;1.42;;;23.70;55.30;;;;;;6241603;28;20048;-74
2021/08/06 02:22:17;;;;;;;2.80;1.23;;;23.60;55.60;;;;;;6241526;28;20073;-74
2021/08/06 02:25:25;;;;;;;1.58;1.27;;;23.60;55.50;;;;;;6224819;28;20061;-74
2021/08/06 02:28:29;;;;;;;2.55;1.42;;;23.60;55.40;;;;;;6224802;28;20113;-74
2021/08/06 02:31:31;;;;;;;1.67;1.20;;;23.60;55.20;;;;;;6224917;28;20040;-75
2021/08/06 02:34:34;;;;;;;5.65;1.40;;;23.60;55.10;;;;;;6241800;28;20080;-74
2021/08/06 02:37:38;;;;;;;2.40;1.20;;;23.50;54.90;;;;;;6241227;28;20038;-74
2021/08/06 02:40:42;;;;;;;1.48;1.30;;;23.60;54.80;;;;;;6224466;28;20030;-74
2021/08/06 02:43:44;;;;;;;1.17;1.00;;;23.60;54.70;;;;;;6225430;28;20085;-74
2021/08/06 02:46:46;;;;;;;3.25;1.63;;;23.60;54.60;;;;;;6240966;28;20089;-74
2021/08/06 02:49:47;;;;;;;5.38;1.10;;;23.60;54.50;;;;;;6239845;28;20065;-74
2021/08/06 02:52:49;;;;;;;3.55;1.27;;;23.60;54.40;;;;;;6240341;28;20029;-75
2021/08/06 02:55:52;;;;;;;3.70;1.27;;;23.60;54.40;;;;;;6240222;28;20030;-74
2021/08/06 02:58:53;;;;;;;1.42;1.08;;;23.60;54.30;;;;;;6240131;28;20041;-74
2021/08/06 03:01:55;;;;;;;3.30;1.35;;;23.60;54.20;;;;;;6241402;28;20038;-74
2021/08/06 03:04:56;;;;;;;2.67;1.45;;;23.60;54.20;;;;;;6240654;28;20088;-74
2021/08/06 03:07:57;;;;;;;5.18;1.17;;;23.60;54.20;;;;;;6240726;28;20026;-74
2021/08/06 03:10:59;;;;;;;1.45;1.13;;;23.60;54.10;;;;;;6239641;28;20048;-74
2021/08/06 03:14:04;;;;;;;2.08;1.10;;;23.60;54.20;;;;;;6240723;28;20127;-74
2021/08/06 03:17:06;;;;;;;2.95;1.50;;;23.60;54.80;;;;;;6239960;28;20042;-74
2021/08/06 03:20:13;;;;;;;3.83;1.45;;;23.50;55.10;;;;;;6223986;28;20033;-75
2021/08/06 03:23:17;;;;;;;2.83;1.48;;;23.50;55.40;;;;;;6240233;28;20030;-74
2021/08/06 03:26:19;;;;;;;2.55;1.40;;;23.40;55.80;;;;;;6240168;28;20034;-74
2021/08/06 03:29:21;;;;;;;5.03;1.55;;;23.30;56.20;;;;;;6239775;28;20030;-75
2021/08/06 03:32:23;;;;;;;2.20;1.40;;;23.30;56.60;;;;;;6241228;28;20034;-74
2021/08/06 03:35:25;;;;;;;2.65;1.33;;;23.20;56.80;;;;;;6224752;28;20046;-74
2021/08/06 03:38:26;;;;;;;2.40;1.60;;;23.20;57.00;;;;;;6207044;28;20034;-74
2021/08/06 03:41:32;;;;;;;2.92;1.30;;;23.20;57.20;;;;;;6223990;28;20038;-74
2021/08/06 03:44:35;;;;;;;4.13;1.55;;;23.10;57.20;;;;;;6224967;28;20370;-74
2021/08/06 03:47:37;;;;;;;5.80;1.63;;;23.10;57.30;;;;;;6223611;28;20042;-74
2021/08/06 03:50:38;;;;;;;4.95;1.40;;;23.10;57.30;;;;;;6240319;28;20060;-74
2021/08/06 03:53:41;;;;;;;6.97;1.15;;;23.00;57.30;;;;;;6240487;28;20042;-74
2021/08/06 03:56:42;;;;;;;4.07;1.35;;;23.00;57.30;;;;;;6223676;28;20446;-74
2021/08/06 03:59:43;;;;;;;4.15;1.55;;;23.00;57.30;;;;;;6223405;28;20060;-74
2021/08/06 04:02:45;;;;;;;1.70;1.05;;;23.10;57.40;;;;;;6225143;28;20038;-74
2021/08/06 04:05:47;;;;;;;5.38;1.20;;;23.10;57.30;;;;;;6239410;28;20527;-74
2021/08/06 04:08:51;;;;;;;2.95;1.20;;;23.10;57.30;;;;;;6239352;28;20479;-75
2021/08/06 04:11:54;;;;;;;1.98;1.33;;;23.10;57.30;;;;;;6239741;28;20483;-74
2021/08/06 04:14:55;;;;;;;1.83;1.38;;;23.10;57.30;;;;;;6239977;28;20539;-74
2021/08/06 04:17:56;;;;;;;1.83;1.23;;;23.00;57.30;;;;;;6223450;28;20125;-74
2021/08/06 04:20:58;;;;;;;2.67;1.38;;;23.00;57.40;;;;;;6239758;28;20038;-74
2021/08/06 04:23:59;;;;;;;6.53;1.30;;;23.00;57.40;;;;;;6229196;28;20041;-74
2021/08/06 04:27:00;;;;;;;4.47;1.20;;;23.00;57.50;;;;;;6227984;28;20113;-74
2021/08/06 04:30:01;;;;;;;1.92;1.38;;;23.00;57.60;;;;;;6243878;28;20041;-74
2021/08/06 04:33:03;;;;;;;2.78;1.40;;;23.00;57.60;;;;;;6228893;28;20042;-74
2021/08/06 04:36:05;;;;;;;2.67;1.48;;;23.00;57.70;;;;;;6228102;28;20044;-74
2021/08/06 04:39:06;;;;;;;1.67;1.42;;;23.00;57.70;;;;;;6244530;28;20378;-74
2021/08/06 04:42:07;;;;;;;8.30;2.15;;;23.00;57.80;;;;;;6228640;28;20037;-74
2021/08/06 04:45:09;;;;;;;3.33;2.03;;;23.00;57.90;;;;;;6228467;28;20030;-74
2021/08/06 04:48:10;;;;;;;9.48;2.10;;;23.00;58.10;;;;;;6229790;28;20475;-74
2021/08/06 04:51:12;;;;;;;9.80;2.08;;;22.90;58.20;;;;;;6227422;28;20037;-74
2021/08/06 04:54:13;;;;;;;3.30;1.83;;;22.80;58.30;;;;;;6227050;28;20034;-74
2021/08/06 04:57:14;;;;;;;4.43;1.65;;;22.70;58.40;;;;;;6243249;28;20100;-74
2021/08/06 05:00:15;;;;;;;3.13;1.88;;;22.80;58.60;;;;;;6226552;28;20467;-74
2021/08/06 05:03:18;;;;;;;2.78;1.80;;;22.80;58.90;;;;;;6228859;28;20049;-74
2021/08/06 05:06:23;;;;;;;3.13;1.60;;;22.80;59.00;;;;;;6226801;28;20033;-74
2021/08/06 05:09:24;;;;;;;5.78;1.88;;;22.80;59.10;;;;;;6227969;28;20034;-74
2021/08/06 05:12:25;;;;;;;3.25;1.75;;;22.70;59.20;;;;;;6243051;28;20042;-74
2021/08/06 05:15:26;;;;;;;5.38;1.90;;;22.70;59.20;;;;;;6226424;28;20425;-74
2021/08/06 05:18:35;;;;;;;5.00;1.77;;;22.70;59.50;;;;;;6242902;28;20371;-74
2021/08/06 05:21:36;;;;;;;5.90;2.30;;;22.70;59.10;;;;;;6242782;28;20046;-74
2021/08/06 05:24:37;;;;;;;3.78;1.77;;;22.80;59.10;;;;;;6226324;28;20041;-74
2021/08/06 05:27:39;;;;;;;3.08;1.60;;;22.80;59.20;;;;;;6227767;28;20033;-74
2021/08/06 05:30:42;;;;;;;7.10;2.30;;;22.80;59.20;;;;;;6244098;28;20038;-73
2021/08/06 05:33:43;;;;;;;4.22;2.03;;;22.80;59.20;;;;;;6229863;28;20041;-75
2021/08/06 05:36:45;;;;;;;7.22;1.80;;;22.80;59.30;;;;;;6226067;28;20034;-76
2021/08/06 05:39:46;;;;;;;5.82;1.63;;;22.90;59.00;;;;;;6227238;28;20467;-73
2021/08/06 05:42:48;;;;;;;7.28;2.00;;;22.90;58.90;;;;;;6242664;28;20034;-74
2021/08/06 05:45:50;;;;;;;4.65;1.80;;;22.90;58.70;;;;;;6225712;28;20231;-73
2021/08/06 05:48:51;;;;;;;3.65;2.25;;;23.00;58.60;;;;;;6225996;28;20117;-73
2021/08/06 05:51:52;;;;;;;6.10;1.65;;;23.10;58.40;;;;;;6225763;28;20034;-75
2021/08/06 05:54:53;;;;;;;3.33;1.65;;;23.20;58.20;;;;;;6225272;28;20455;-74
2021/08/06 05:57:55;;;;;;;3.35;1.77;;;23.20;58.10;;;;;;6225320;28;20340;-74
2021/08/06 06:00:56;;;;;;;6.38;1.77;;;23.30;57.90;;;;;;6224971;28;20368;-74
2021/08/06 06:04:12;;;;;;;2.45;1.50;;;23.40;57.80;;;;;;6240889;28;20041;-74
2021/08/06 06:07:43;;;;;;;2.72;1.63;;;23.40;57.50;;;;;;6224307;28;20041;-73
2021/08/06 06:10:44;;;;;;;4.97;1.88;;;23.50;57.30;;;;;;6240641;28;20107;-74
2021/08/06 06:13:46;;;;;;;5.55;1.60;;;23.60;57.10;;;;;;6223962;28;20042;-74
2021/08/06 06:16:49;;;;;;;2.22;1.35;;;23.60;56.90;;;;;;6239053;28;20038;-74
2021/08/06 06:19:51;;;;;;;3.88;1.63;;;23.60;56.80;;;;;;6240149;28;20135;-74
2021/08/06 06:22:52;;;;;;;5.90;1.98;;;23.60;56.70;;;;;;6240234;28;20352;-74
2021/08/06 06:25:54;;;;;;;4.75;1.80;;;23.60;56.70;;;;;;6224364;28;20041;-74
2021/08/06 06:28:56;;;;;;;3.90;1.80;;;23.70;56.60;;;;;;6224618;28;20038;-75
2021/08/06 06:31:57;;;;;;;4.18;1.60;;;23.70;56.50;;;;;;6241539;28;20091;-75
2021/08/06 06:34:59;;;;;;;5.53;1.48;;;23.80;56.40;;;;;;6239472;28;20052;-74
2021/08/06 06:38:00;;;;;;;8.75;1.60;;;23.90;56.20;;;;;;6239321;28;20315;-74
2021/08/06 06:41:02;;;;;;;3.25;1.40;;;23.90;56.00;;;;;;6239602;28;20029;-74
2021/08/06 06:44:07;;;;;;;3.33;1.73;;;23.90;55.80;;;;;;6222697;28;20042;-74
2021/08/06 06:47:09;;;;;;;3.25;1.13;;;24.00;55.80;;;;;;6239201;28;20064;-74
2021/08/06 06:50:15;;;;;;;2.13;1.10;;;24.00;55.60;;;;;;6223024;28;20426;-75
2021/08/06 06:53:17;;;;;;;6.40;1.83;;;24.00;55.50;;;;;;6239235;28;20030;-75
2021/08/06 06:56:19;;;;;;;6.80;1.50;;;24.10;55.50;;;;;;6239421;28;20544;-75
2021/08/06 06:59:21;;;;;;;7.72;1.63;;;24.10;55.30;;;;;;6222611;28;20372;-75
2021/08/06 07:02:23;;;;;;;4.47;1.33;;;24.20;55.20;;;;;;6223817;28;20060;-76
2021/08/06 07:05:24;;;;;;;13.27;1.80;;;24.20;55.00;;;;;;6239433;28;20474;-75
2021/08/06 07:08:28;;;;;;;1.60;1.20;;;24.20;54.90;;;;;;6223436;28;20042;-75
2021/08/06 07:11:30;;;;;;;8.80;1.67;;;24.30;54.80;;;;;;6239777;28;20459;-75
2021/08/06 07:14:33;;;;;;;6.32;1.80;;;24.30;54.80;;;;;;6239510;28;20042;-75
2021/08/06 07:17:35;;;;;;;8.18;1.80;;;24.30;54.80;;;;;;6223769;28;20045;-75
2021/08/06 07:20:37;;;;;;;2.97;1.38;;;24.40;54.80;;;;;;6223767;28;20486;-75
2021/08/06 07:23:39;;;;;;;3.13;1.45;;;24.40;54.80;;;;;;6224486;28;20045;-75
2021/08/06 07:26:42;;;;;;;4.93;1.52;;;24.40;54.50;;;;;;6223428;28;20038;-74
2021/08/06 07:29:44;;;;;;;6.90;1.90;;;24.50;54.30;;;;;;6223297;28;20344;-74
2021/08/06 07:32:46;;;;;;;5.60;1.45;;;24.60;53.90;;;;;;6224787;28;20062;-74
2021/08/06 07:35:47;;;;;;;4.22;1.70;;;24.70;53.60;;;;;;6223326;28;20129;-74
2021/08/06 07:38:49;;;;;;;2.60;1.50;;;24.80;53.50;;;;;;6239932;28;20062;-74
2021/08/06 07:41:51;;;;;;;3.25;1.42;;;24.90;53.20;;;;;;6223239;28;20085;-75
2021/08/06 07:44:52;;;;;;;5.70;1.90;;;25.00;53.20;;;;;;6223648;28;20038;-74
2021/08/06 07:47:53;;;;;;;2.63;1.42;;;25.10;52.70;;;;;;6223372;28;20030;-74
2021/08/06 07:50:54;;;;;;;4.80;1.73;;;25.20;52.50;;;;;;6239648;28;20038;-74
2021/08/06 07:53:55;;;;;;;6.20;1.98;;;25.30;52.30;;;;;;6239267;28;20069;-74
2021/08/06 07:56:57;;;;;;;2.40;1.60;;;25.40;52.10;;;;;;6242867;28;20061;-74
2021/08/06 07:59:59;;;;;;;4.90;1.90;;;25.50;51.80;;;;;;6227342;28;20045;-74
2021/08/06 08:03:00;;;;;;;8.75;1.65;;;25.60;51.50;;;;;;6245072;28;20478;-75
2021/08/06 08:06:08;;;;;;;8.38;1.60;;;25.70;51.40;;;;;;6227532;28;20038;-74
2021/08/06 08:09:10;;;;;;;5.95;1.60;;;25.80;51.00;;;;;;6244204;28;20080;-74
2021/08/06 08:12:13;;;;;;;3.92;1.77;;;25.90;50.70;;;;;;6226267;28;20044;-74
2021/08/06 08:15:14;;;;;;;2.22;1.30;;;26.00;50.60;;;;;;6243784;28;20038;-74
2021/08/06 08:18:16;;;;;;;2.20;1.50;;;26.10;50.10;;;;;;6243901;28;20041;-75
2021/08/06 08:21:18;;;;;;;4.00;1.60;;;26.20;50.00;;;;;;6243251;28;20154;-74
2021/08/06 08:24:19;;;;;;;5.15;1.40;;;26.30;49.80;;;;;;6226469;28;20038;-75
2021/08/06 08:27:21;;;;;;;2.42;1.50;;;26.50;49.50;;;;;;6227493;28;20037;-74
2021/08/06 08:30:23;;;;;;;4.07;1.35;;;26.70;49.40;;;;;;6228458;28;20041;-75
2021/08/06 08:33:25;;;;;;;3.30;1.00;;;26.80;48.90;;;;;;6244257;28;20069;-73
2021/08/06 08:36:27;;;;;;;2.65;1.08;;;26.90;47.60;;;;;;6243410;28;20034;-75
2021/08/06 08:39:30;;;;;;;4.18;0.98;;;27.00;45.60;;;;;;6227092;28;20395;-74
2021/08/06 08:42:32;;;;;;;3.45;1.00;;;27.10;44.20;;;;;;6226801;28;20483;-75
2021/08/06 08:45:39;;;;;;;1.92;1.00;;;27.30;43.60;;;;;;6243401;28;21090;-74
2021/08/06 08:48:40;;;;;;;3.35;1.60;;;27.40;43.10;;;;;;6243313;28;20037;-74
2021/08/06 08:51:47;;;;;;;1.85;1.00;;;27.50;42.40;;;;;;6226075;28;20336;-75
2021/08/06 08:54:49;;;;;;;2.77;1.07;;;27.60;42.10;;;;;;6227100;28;20125;-75
2021/08/06 08:57:52;;;;;;;0.98;0.82;;;27.70;41.40;;;;;;6242407;28;20034;-75
2021/08/06 09:00:53;;;;;;;4.82;1.20;;;27.70;41.10;;;;;;6242495;28;20115;-74
2021/08/06 09:03:54;;;;;;;0.95;0.88;;;27.80;40.90;;;;;;6227634;28;20458;-75
2021/08/06 09:07:01;;;;;;;2.88;0.90;;;27.90;40.50;;;;;;6242154;28;20118;-74
2021/08/06 09:10:16;;;;;;;5.53;0.90;;;27.90;40.20;;;;;;6225932;28;20064;-74
2021/08/06 09:13:37;;;;;;;2.42;0.90;;;27.90;40.00;;;;;;6236688;28;20148;-74
2021/08/06 09:17:00;;;;;;;1.58;1.00;;;28.00;39.90;;;;;;6224137;28;20092;-75
2021/08/06 09:20:05;;;;;;;2.80;0.95;;;28.10;39.70;;;;;;6224675;28;20033;-75
2021/08/06 09:23:09;;;;;;;2.90;1.20;;;28.10;39.50;;;;;;6223840;28;20030;-75
2021/08/06 09:26:41;;;;;;;5.97;1.23;;;28.20;39.50;;;;;;6239603;28;20079;-74
2021/08/06 09:29:42;;;;;;;3.38;1.20;;;28.20;39.50;;;;;;6223751;28;20482;-74
2021/08/06 09:32:46;;;;;;;3.10;1.10;;;28.20;39.40;;;;;;6241661;28;20084;-75
2021/08/06 09:35:47;;;;;;;4.10;1.13;;;28.30;39.30;;;;;;6231818;28;20053;-76
2021/08/06 09:38:48;;;;;;;2.13;1.00;;;28.30;39.10;;;;;;6235751;28;20029;-75
2021/08/06 09:41:50;;;;;;;4.75;1.35;;;28.40;38.80;;;;;;6230312;28;20482;-75
2021/08/06 09:45:09;;;;;;;1.98;0.93;;;28.40;38.90;;;;;;6224498;28;20350;-75
2021/08/06 09:48:12;;;;;;;2.58;1.00;;;28.30;38.60;;;;;;6222570;28;20026;-75
2021/08/06 09:51:13;;;;;;;1.33;1.00;;;28.40;38.80;;;;;;6238254;28;20061;-76
2021/08/06 09:54:26;;;;;;;2.70;1.10;;;28.40;38.90;;;;;;6221846;28;20038;-76
2021/08/06 09:57:28;;;;;;;1.67;1.02;;;28.40;38.70;;;;;;6238442;28;20041;-75
2021/08/06 10:00:29;;;;;;;2.53;1.15;;;28.50;38.60;;;;;;6237888;28;20049;-75
2021/08/06 10:03:35;;;;;;;2.30;1.15;;;28.50;38.40;;;;;;6222557;28;20100;-74
2021/08/06 10:06:36;;;;;;;1.48;0.80;;;28.50;38.30;;;;;;6221291;28;20080;-75
2021/08/06 10:09:37;;;;;;;2.63;1.23;;;28.60;38.10;;;;;;6237961;28;20049;-75
2021/08/06 10:12:38;;;;;;;3.30;1.10;;;28.60;37.90;;;;;;6216360;28;20462;-75
2021/08/06 10:15:40;;;;;;;3.25;1.00;;;28.70;37.90;;;;;;6214417;28;20142;-75
2021/08/06 10:18:41;;;;;;;3.30;1.33;;;28.70;37.90;;;;;;6219381;28;20037;-75
2021/08/06 10:21:43;;;;;;;2.28;1.30;;;28.70;37.90;;;;;;6236948;28;20100;-75
2021/08/06 10:24:47;;;;;;;4.03;1.17;;;28.80;37.80;;;;;;6237065;28;20120;-75
2021/08/06 10:27:50;;;;;;;3.88;1.45;;;28.80;37.80;;;;;;6236840;28;20054;-75
2021/08/06 10:30:51;;;;;;;3.33;1.33;;;28.80;37.70;;;;;;6236989;28;20113;-76
2021/08/06 10:34:03;;;;;;;6.47;1.30;;;28.80;37.50;;;;;;6237985;28;20498;-75
2021/08/06 10:37:04;;;;;;;3.38;1.40;;;28.90;37.60;;;;;;6222632;28;20444;-75
2021/08/06 10:40:05;;;;;;;2.00;1.10;;;29.00;37.50;;;;;;6238429;28;20040;-75
2021/08/06 10:43:09;;;;;;;3.63;0.90;;;28.90;37.40;;;;;;6219470;28;20049;-75
2021/08/06 10:46:13;;;;;;;3.80;1.10;;;28.90;37.10;;;;;;6221401;28;20033;-75
2021/08/06 10:49:14;;;;;;;2.58;1.00;;;29.00;37.20;;;;;;6222679;28;20038;-75
2021/08/06 10:52:20;;;;;;;1.20;1.00;;;29.00;37.20;;;;;;6237735;28;20133;-75
2021/08/06 10:55:22;;;;;;;3.90;1.10;;;29.00;37.30;;;;;;6221487;28;20053;-75
2021/08/06 10:58:51;;;;;;;3.15;1.25;;;29.10;37.50;;;;;;6237146;28;20034;-75
2021/08/06 11:01:52;;;;;;;5.30;1.10;;;29.30;37.60;;;;;;6235746;28;20042;-74
2021/08/06 11:04:54;;;;;;;1.73;1.02;;;30.10;36.90;;;;;;6236231;28;20120;-75
2021/08/06 11:07:55;;;;;;;2.30;1.15;;;30.90;35.70;;;;;;6232423;28;20047;-74
2021/08/06 11:10:57;;;;;;;1.27;0.88;;;31.70;34.50;;;;;;6218728;28;20192;-75
2021/08/06 11:13:58;;;;;;;5.15;1.38;;;32.40;33.20;;;;;;6220634;28;20132;-75
2021/08/06 11:17:09;;;;;;;4.03;1.25;;;33.00;32.20;;;;;;6234223;28;20221;-76
2021/08/06 11:20:13;;;;;;;2.00;1.15;;;33.30;31.70;;;;;;6219495;28;20030;-75
2021/08/06 11:23:15;;;;;;;1.23;0.98;;;33.60;31.10;;;;;;6219490;28;20454;-75
2021/08/06 11:26:16;;;;;;;4.50;1.30;;;34.00;30.70;;;;;;6219669;28;20042;-75
2021/08/06 11:29:19;;;;;;;2.83;1.23;;;34.30;30.40;;;;;;6220650;28;20034;-74
2021/08/06 11:32:20;;;;;;;3.10;1.30;;;34.40;29.80;;;;;;6219864;28;20044;-75
2021/08/06 11:38:38;;;;;;;1.60;1.15;;;34.70;29.70;;;;;;6172042;23;20062;-75
2021/08/06 11:41:47;;;;;;;3.45;1.08;;;34.90;29.30;;;;;;6147442;28;20031;-75
2021/08/06 11:44:58;;;;;;;1.25;0.82;;;34.90;29.10;;;;;;6143684;28;20047;-75
2021/08/06 11:48:00;;;;;;;3.72;1.58;;;34.80;29.00;;;;;;6147582;28;20444;-75
2021/08/06 11:51:06;;;;;;;3.63;1.23;;;34.80;29.10;;;;;;6149272;28;20122;-75
2021/08/06 11:54:10;;;;;;;2.95;1.15;;;34.70;29.00;;;;;;6147837;28;20047;-75
2021/08/06 11:57:11;;;;;;;2.20;1.30;;;34.60;29.10;;;;;;6131878;28;20094;-76
2021/08/06 12:00:22;;;;;;;4.45;1.08;;;34.70;29.00;;;;;;6147837;28;20051;-75
2021/08/06 12:03:23;;;;;;;1.95;1.40;;;35.00;28.90;;;;;;6149264;28;20448;-75
2021/08/06 12:06:25;;;;;;;1.52;0.90;;;35.20;28.80;;;;;;6148252;28;20035;-75
2021/08/06 12:09:26;;;;;;;2.85;1.20;;;35.60;28.60;;;;;;6148879;28;20364;-75
2021/08/06 12:12:30;;;;;;;5.93;1.20;;;35.90;28.10;;;;;;6131830;28;20055;-75
2021/08/06 12:15:31;;;;;;;10.13;1.08;;;36.20;27.80;;;;;;6145393;28;20457;-75
2021/08/06 12:18:33;;;;;;;3.15;1.33;;;36.30;27.40;;;;;;6147553;28;20051;-75
2021/08/06 12:21:46;;;;;;;3.70;1.00;;;36.40;27.30;;;;;;6147814;28;20039;-75
2021/08/06 12:24:47;;;;;;;2.67;0.93;;;36.40;26.90;;;;;;6147426;28;20122;-75
2021/08/06 12:27:48;;;;;;;4.60;1.00;;;36.40;26.70;;;;;;6147802;28;20035;-75
2021/08/06 12:30:49;;;;;;;1.98;0.93;;;36.30;26.60;;;;;;6147547;28;20098;-75
2021/08/06 12:34:06;;;;;;;2.88;1.17;;;36.30;26.90;;;;;;6146821;28;20043;-75
2021/08/06 12:37:15;;;;;;;2.37;1.27;;;36.40;26.80;;;;;;6165652;28;20046;-75
2021/08/06 12:40:16;;;;;;;3.70;1.10;;;36.80;26.40;;;;;;6194382;28;20327;-75
2021/08/06 12:43:20;;;;;;;2.35;1.05;;;37.20;26.10;;;;;;6185640;28;20129;-75
2021/08/06 12:46:21;;;;;;;6.25;1.08;;;37.50;25.90;;;;;;6165446;28;20521;-75
2021/08/06 12:49:32;;;;;;;4.80;1.17;;;38.00;25.60;;;;;;6182630;28;20046;-75
2021/08/06 12:52:38;;;;;;;2.53;0.82;;;38.50;25.00;;;;;;6180787;28;20038;-75
2021/08/06 12:55:41;;;;;;;8.00;1.00;;;38.80;24.80;;;;;;6182273;28;20057;-76
2021/08/06 12:58:43;;;;;;;5.43;1.08;;;39.30;24.30;;;;;;6179526;28;20045;-75
2021/08/06 13:01:44;;;;;;;3.17;1.23;;;39.60;23.90;;;;;;6199355;28;20118;-75
2021/08/06 13:04:48;;;;;;;2.55;1.20;;;39.90;23.40;;;;;;6181963;28;20038;-76
2021/08/06 13:07:49;;;;;;;3.83;1.10;;;40.10;23.10;;;;;;6181982;28;20038;-75
2021/08/06 13:11:02;;;;;;;2.70;1.10;;;40.50;22.80;;;;;;6180609;28;20031;-75
2021/08/06 13:14:05;;;;;;;1.95;1.20;;;40.90;22.50;;;;;;6164451;28;20034;-75
2021/08/06 13:17:07;;;;;;;3.15;1.10;;;41.10;22.20;;;;;;6198237;28;20104;-74
2021/08/06 13:20:09;;;;;;;1.35;0.90;;;41.20;22.10;;;;;;6180554;28;20057;-75
2021/08/06 13:23:11;;;;;;;3.10;0.90;;;41.40;22.10;;;;;;6183121;28;20089;-75
2021/08/06 13:26:12;;;;;;;1.63;1.00;;;41.60;21.70;;;;;;6182989;28;20100;-75
2021/08/06 13:29:13;;;;;;;5.45;1.17;;;41.90;21.50;;;;;;6182694;28;20030;-75
2021/08/06 13:32:14;;;;;;;2.17;1.00;;;42.30;21.40;;;;;;6182883;28;20034;-75
2021/08/06 13:35:15;;;;;;;2.55;0.80;;;42.50;21.00;;;;;;6166557;28;20042;-75
2021/08/06 13:38:16;;;;;;;2.92;0.90;;;43.10;20.60;;;;;;6181698;28;20416;-74
2021/08/06 13:41:17;;;;;;;1.00;0.88;;;43.60;20.00;;;;;;6199948;28;20100;-74
2021/08/06 13:44:19;;;;;;;1.02;0.80;;;43.80;19.80;;;;;;6181342;28;20355;-74
2021/08/06 13:47:20;;;;;;;1.00;0.70;;;44.20;19.70;;;;;;6198831;28;20416;-75
2021/08/06 13:50:21;;;;;;;4.38;0.88;;;44.40;19.40;;;;;;6166448;28;20061;-74
2021/08/06 13:53:22;;;;;;;2.13;0.98;;;44.30;19.40;;;;;;6199264;28;20089;-75
2021/08/06 13:56:23;;;;;;;3.10;1.00;;;44.30;19.50;;;;;;6182620;28;20353;-75
2021/08/06 13:59:25;;;;;;;1.65;0.90;;;44.60;19.40;;;;;;6199389;28;20030;-75
2021/08/06 14:02:26;;;;;;;1.13;0.82;;;45.00;19.10;;;;;;6199631;28;20109;-76
2021/08/06 14:05:28;;;;;;;3.20;1.23;;;45.10;18.90;;;;;;6199466;28;20045;-75
2021/08/06 14:08:29;;;;;;;2.17;1.02;;;45.10;18.90;;;;;;6189577;28;20060;-75
2021/08/06 14:11:30;;;;;;;1.23;0.93;;;45.20;18.80;;;;;;6164641;28;20034;-75
2021/08/06 14:14:31;;;;;;;3.13;0.90;;;45.20;18.80;;;;;;6197303;28;20046;-75
2021/08/06 14:17:32;;;;;;;2.88;1.25;;;45.40;18.80;;;;;;6181392;28;20161;-75
2021/08/06 14:20:33;;;;;;;2.20;1.30;;;45.50;18.60;;;;;;6198260;28;20301;-75
2021/08/06 14:23:34;;;;;;;3.90;0.90;;;45.50;18.50;;;;;;6181523;28;20364;-75
2021/08/06 14:26:35;;;;;;;1.77;1.00;;;45.50;18.70;;;;;;6198832;28;20470;-75
2021/08/06 14:29:37;;;;;;;2.88;1.08;;;45.50;18.50;;;;;;6181619;28;20034;-75
2021/08/06 14:32:38;;;;;;;2.17;0.85;;;45.50;18.50;;;;;;6165357;28;20042;-76
2021/08/06 14:35:39;;;;;;;1.73;1.05;;;45.50;18.40;;;;;;6198714;28;20056;-75
2021/08/06 14:38:41;;;;;;;2.78;0.93;;;45.40;18.50;;;;;;6181297;28;20412;-75
2021/08/06 14:41:43;;;;;;;1.08;0.98;;;45.10;18.60;;;;;;6181216;28;20069;-75
2021/08/06 14:44:44;;;;;;;3.30;0.98;;;44.80;18.60;;;;;;6196578;28;20038;-75
2021/08/06 14:47:48;;;;;;;1.60;1.00;;;44.30;18.90;;;;;;6181120;28;20057;-75
2021/08/06 14:50:49;;;;;;;2.17;1.10;;;43.10;19.90;;;;;;6180216;28;20040;-75
2021/08/06 14:53:51;;;;;;;6.03;1.10;;;41.70;21.10;;;;;;6198008;28;20042;-75
2021/08/06 14:56:52;;;;;;;2.00;1.20;;;40.30;22.30;;;;;;6198351;28;20042;-75
2021/08/06 14:59:53;;;;;;;3.15;1.23;;;39.10;23.30;;;;;;6197865;28;20038;-75
2021/08/06 15:02:54;;;;;;;4.65;1.20;;;38.20;24.20;;;;;;6179535;28;20057;-75
2021/08/06 15:05:55;;;;;;;2.17;1.13;;;37.40;25.10;;;;;;6164423;28;20049;-76
2021/08/06 15:08:57;;;;;;;2.80;0.90;;;36.50;26.10;;;;;;6180912;28;20034;-75
2021/08/06 15:11:58;;;;;;;2.25;1.00;;;35.70;27.00;;;;;;6179829;28;20031;-75
2021/08/06 15:15:01;;;;;;;1.65;1.00;;;35.10;27.70;;;;;;6178932;28;20113;-75
2021/08/06 15:18:02;;;;;;;3.40;1.20;;;34.50;28.30;;;;;;6180417;28;20061;-74
2021/08/06 15:21:03;;;;;;;7.00;1.23;;;34.00;29.00;;;;;;6164295;28;20134;-74
2021/08/06 15:24:04;;;;;;;10.90;1.30;;;33.60;29.50;;;;;;6198063;28;20035;-74
2021/08/06 15:27:06;;;;;;;3.05;1.23;;;33.30;30.00;;;;;;6186102;28;20038;-75
2021/08/06 15:30:08;;;;;;;2.42;1.20;;;33.00;30.40;;;;;;6197862;28;20030;-75
2021/08/06 15:33:09;;;;;;;2.40;1.15;;;32.90;31.00;;;;;;6208902;28;20038;-76
2021/08/06 15:36:10;;;;;;;2.38;1.17;;;33.40;30.50;;;;;;6183306;28;20030;-73
2021/08/06 15:39:11;;;;;;;3.40;1.05;;;34.80;28.90;;;;;;6181006;28;20469;-74
2021/08/06 15:42:12;;;;;;;3.78;1.10;;;36.50;27.20;;;;;;6198255;28;20039;-73
2021/08/06 15:45:14;;;;;;;3.30;1.20;;;37.90;25.70;;;;;;6197462;28;20033;-74
2021/08/06 15:48:18;;;;;;;1.65;1.08;;;39.00;24.50;;;;;;6197587;28;20038;-74
2021/08/06 15:51:20;;;;;;;5.00;1.20;;;39.90;23.70;;;;;;6197179;28;20034;-74
2021/08/06 15:54:21;;;;;;;1.13;0.90;;;40.80;22.90;;;;;;6164158;28;20117;-75
2021/08/06 15:57:22;;;;;;;1.33;0.90;;;41.40;22.30;;;;;;6180058;28;20093;-75